Time;durP1;ratioP1;P1;durP2;ratioP2;P2;SDS_P1;SDS_P2;PMS_P1;PMS_P2;Temp;Humidity;BMP_temperature;BMP_pressure;BME280_temperature;BME280_humidity;BME280_pressure;Samples;Min_cycle;Max_cycle;Signal;HPM_P1;HPM_P2
2023/09/27 00:01:50;;;;;;;9.63;7.90;;;;;;;;;;5034154;28;20474;-81
2023/09/27 00:04:16;;;;;;;11.20;7.20;;;;;;;;;;5034395;28;20467;-81
2023/09/27 00:06:43;;;;;;;11.80;8.30;;;;;;;;;;5036273;28;20823;-81
2023/09/27 00:09:09;;;;;;;9.10;7.87;;;;;;;;;;5034343;28;20955;-81
2023/09/27 00:11:36;;;;;;;9.90;8.50;;;;;;;;;;5035345;28;20516;-81
2023/09/27 00:14:04;;;;;;;10.50;7.63;;;;;;;;;;5034289;28;20476;-81
2023/09/27 00:16:30;;;;;;;11.03;8.63;;;;;;;;;;5039065;28;20438;-81
2023/09/27 00:18:56;;;;;;;9.07;8.17;;;;;;;;;;5054405;28;20430;-81
2023/09/27 00:21:23;;;;;;;8.40;6.77;;;;;;;;;;5052508;28;20441;-81
2023/09/27 00:23:49;;;;;;;9.70;8.43;;;;;;;;;;5063688;28;20430;-81
2023/09/27 00:26:15;;;;;;;9.80;7.57;;;;;;;;;;5057530;28;20482;-81
2023/09/27 00:28:42;;;;;;;9.90;7.40;;;;;;;;;;5054266;28;20942;-81
2023/09/27 00:31:09;;;;;;;8.77;7.27;;;;;;;;;;5053902;28;20438;-81
2023/09/27 00:33:36;;;;;;;11.10;7.63;;;;;;;;;;5053103;28;20492;-81
2023/09/27 00:36:03;;;;;;;11.47;8.50;;;;;;;;;;5052200;28;20463;-81
2023/09/27 00:38:29;;;;;;;9.50;7.03;;;;;;;;;;5054648;28;20782;-81
2023/09/27 00:40:55;;;;;;;14.13;8.97;;;;;;;;;;5049637;28;20474;-81
2023/09/27 00:43:28;;;;;;;14.20;8.00;;;;;;;;;;5053809;28;20977;-81
2023/09/27 00:45:57;;;;;;;9.80;8.10;;;;;;;;;;5052355;28;21006;-81
2023/09/27 00:48:25;;;;;;;7.40;6.80;;;;;;;;;;5054213;28;20450;-81
2023/09/27 00:50:51;;;;;;;8.10;7.30;;;;;;;;;;5053692;28;20444;-81
2023/09/27 00:53:18;;;;;;;9.63;8.10;;;;;;;;;;5054081;28;20495;-81
2023/09/27 00:55:45;;;;;;;9.30;7.67;;;;;;;;;;5053294;28;20964;-81
2023/09/27 00:58:14;;;;;;;10.37;9.10;;;;;;;;;;5053589;28;20433;-81
2023/09/27 01:00:42;;;;;;;9.70;8.17;;;;;;;;;;5045613;28;20805;-81
2023/09/27 01:03:08;;;;;;;11.27;8.17;;;;;;;;;;5030057;28;20468;-81
2023/09/27 01:05:36;;;;;;;8.57;7.70;;;;;;;;;;5033955;28;20441;-81
2023/09/27 01:08:04;;;;;;;9.10;8.20;;;;;;;;;;5034194;28;20432;-81
2023/09/27 01:10:31;;;;;;;7.97;7.17;;;;;;;;;;5035689;28;20775;-81
2023/09/27 01:12:58;;;;;;;8.43;7.70;;;;;;;;;;5035769;28;21007;-81
2023/09/27 01:15:25;;;;;;;8.70;7.93;;;;;;;;;;5037840;28;20455;-81
2023/09/27 01:17:57;;;;;;;7.60;6.90;;;;;;;;;;5056302;28;20479;-81
2023/09/27 01:20:24;;;;;;;15.13;7.97;;;;;;;;;;5057034;28;20547;-81
2023/09/27 01:22:55;;;;;;;9.77;8.13;;;;;;;;;;5055531;28;20529;-80
2023/09/27 01:25:22;;;;;;;15.03;9.47;;;;;;;;;;5057445;28;20443;-80
2023/09/27 01:27:49;;;;;;;10.47;8.47;;;;;;;;;;5056403;28;20471;-80
2023/09/27 01:30:15;;;;;;;10.10;9.20;;;;;;;;;;5057079;28;20440;-81
2023/09/27 01:32:42;;;;;;;9.47;8.67;;;;;;;;;;5054087;28;20460;-80
2023/09/27 01:35:09;;;;;;;11.50;8.60;;;;;;;;;;5056760;28;20840;-80
2023/09/27 01:37:36;;;;;;;14.50;9.37;;;;;;;;;;5056486;28;20989;-80
2023/09/27 01:40:09;;;;;;;8.70;7.80;;;;;;;;;;5056596;28;20447;-80
2023/09/27 01:42:37;;;;;;;9.23;8.30;;;;;;;;;;5057079;28;20475;-79
2023/09/27 01:45:04;;;;;;;11.20;8.40;;;;;;;;;;5057059;28;20594;-80
2023/09/27 01:47:31;;;;;;;8.80;7.60;;;;;;;;;;5051586;28;20469;-80
2023/09/27 01:49:57;;;;;;;8.50;7.60;;;;;;;;;;5072982;28;20451;-80
2023/09/27 01:52:24;;;;;;;12.00;7.60;;;;;;;;;;5055823;28;20472;-80
2023/09/27 01:54:50;;;;;;;7.93;7.23;;;;;;;;;;5056504;28;20867;-79
2023/09/27 01:57:18;;;;;;;8.40;7.60;;;;;;;;;;5055935;28;20464;-80
2023/09/27 01:59:44;;;;;;;8.20;7.40;;;;;;;;;;5058431;28;20460;-80
2023/09/27 02:02:13;;;;;;;7.80;7.10;;;;;;;;;;5056620;28;20483;-80
2023/09/27 02:04:39;;;;;;;8.40;7.60;;;;;;;;;;5056540;28;20472;-80
2023/09/27 02:07:07;;;;;;;15.50;8.47;;;;;;;;;;5038829;28;20471;-80
2023/09/27 02:09:33;;;;;;;9.30;8.50;;;;;;;;;;5056928;28;20842;-80
2023/09/27 02:12:00;;;;;;;8.93;8.13;;;;;;;;;;5056198;28;20463;-80
2023/09/27 02:14:28;;;;;;;8.07;7.27;;;;;;;;;;5055035;28;20534;-80
2023/09/27 02:16:55;;;;;;;8.97;8.17;;;;;;;;;;5055914;28;20479;-81
2023/09/27 02:19:21;;;;;;;9.67;8.63;;;;;;;;;;5056467;28;20440;-82
2023/09/27 02:21:47;;;;;;;9.27;8.37;;;;;;;;;;5055099;28;20467;-80
2023/09/27 02:24:15;;;;;;;8.73;7.73;;;;;;;;;;5055762;28;20985;-81
2023/09/27 02:26:41;;;;;;;9.67;8.70;;;;;;;;;;5054842;28;20828;-80
2023/09/27 02:29:08;;;;;;;9.50;8.17;;;;;;;;;;5055583;28;20925;-80
2023/09/27 02:31:36;;;;;;;10.17;9.20;;;;;;;;;;5055301;28;20490;-80
2023/09/27 02:34:02;;;;;;;8.03;7.23;;;;;;;;;;5055736;28;20558;-80
2023/09/27 02:36:30;;;;;;;9.40;8.50;;;;;;;;;;5057152;28;21021;-80
2023/09/27 02:38:58;;;;;;;9.57;8.57;;;;;;;;;;5055971;28;20515;-80
2023/09/27 02:41:24;;;;;;;9.73;8.83;;;;;;;;;;5055543;28;20518;-81
2023/09/27 02:43:51;;;;;;;11.60;10.43;;;;;;;;;;5055701;28;20452;-79
2023/09/27 02:46:17;;;;;;;10.13;9.13;;;;;;;;;;5053914;28;20468;-80
2023/09/27 02:48:45;;;;;;;11.77;9.20;;;;;;;;;;5051143;28;20449;-80
2023/09/27 02:51:14;;;;;;;8.80;7.90;;;;;;;;;;5037250;28;20464;-80
2023/09/27 02:53:41;;;;;;;9.87;8.87;;;;;;;;;;5035330;28;20980;-80
2023/09/27 02:56:08;;;;;;;10.30;9.10;;;;;;;;;;5034961;28;20539;-80
2023/09/27 02:58:34;;;;;;;11.00;9.90;;;;;;;;;;5035308;28;20437;-80
2023/09/27 03:01:00;;;;;;;9.70;8.70;;;;;;;;;;5034684;28;20824;-80
2023/09/27 03:03:30;;;;;;;9.60;8.60;;;;;;;;;;5035368;28;20830;-80
2023/09/27 03:05:58;;;;;;;10.00;9.07;;;;;;;;;;5034707;28;20468;-80
2023/09/27 03:08:24;;;;;;;9.93;8.93;;;;;;;;;;5035312;28;20495;-80
2023/09/27 03:10:51;;;;;;;11.27;10.27;;;;;;;;;;5033556;28;20939;-80
2023/09/27 03:13:17;;;;;;;11.23;8.97;;;;;;;;;;5033854;28;20464;-80
2023/09/27 03:15:45;;;;;;;10.53;9.53;;;;;;;;;;5036199;28;20452;-80
2023/09/27 03:18:13;;;;;;;10.73;9.63;;;;;;;;;;5054961;28;20433;-80
2023/09/27 03:20:39;;;;;;;10.30;9.30;;;;;;;;;;5054073;28;20464;-80
2023/09/27 03:23:07;;;;;;;10.40;9.30;;;;;;;;;;5039326;28;20496;-80
2023/09/27 03:25:35;;;;;;;11.87;10.67;;;;;;;;;;5036011;28;20832;-82
2023/09/27 03:28:01;;;;;;;13.93;10.20;;;;;;;;;;5033708;28;20445;-80
2023/09/27 03:30:27;;;;;;;10.90;9.80;;;;;;;;;;5037339;28;20457;-80
2023/09/27 03:32:55;;;;;;;11.03;9.87;;;;;;;;;;5033047;28;20479;-80
2023/09/27 03:35:22;;;;;;;10.73;9.67;;;;;;;;;;5034406;28;20496;-80
2023/09/27 03:37:50;;;;;;;9.43;8.60;;;;;;;;;;5033198;28;20473;-80
2023/09/27 03:40:18;;;;;;;10.60;9.37;;;;;;;;;;5035004;28;20475;-82
2023/09/27 03:42:46;;;;;;;11.87;9.43;;;;;;;;;;5044725;28;20464;-79
2023/09/27 03:45:14;;;;;;;9.63;8.73;;;;;;;;;;5053498;28;20464;-80
2023/09/27 03:47:42;;;;;;;12.03;10.70;;;;;;;;;;5053697;28;20468;-79
2023/09/27 03:50:10;;;;;;;12.73;10.30;;;;;;;;;;5054446;28;20455;-81
2023/09/27 03:52:36;;;;;;;11.97;10.67;;;;;;;;;;5054890;28;20464;-80
2023/09/27 03:55:02;;;;;;;11.87;10.67;;;;;;;;;;5085796;28;20491;-81
2023/09/27 03:57:31;;;;;;;11.97;10.87;;;;;;;;;;5054547;28;20463;-80
2023/09/27 03:59:58;;;;;;;12.20;10.97;;;;;;;;;;5054591;28;20443;-80
2023/09/27 04:02:26;;;;;;;10.33;9.30;;;;;;;;;;5054558;28;20467;-80
2023/09/27 04:04:52;;;;;;;10.47;9.37;;;;;;;;;;5053009;28;20908;-81
2023/09/27 04:07:20;;;;;;;12.60;11.07;;;;;;;;;;5052713;28;20518;-80
2023/09/27 04:09:46;;;;;;;11.83;10.60;;;;;;;;;;5054590;28;20444;-79
2023/09/27 04:12:12;;;;;;;10.93;10.03;;;;;;;;;;5052313;28;20468;-80
2023/09/27 04:14:40;;;;;;;14.23;10.50;;;;;;;;;;5043791;28;20470;-80
2023/09/27 04:17:07;;;;;;;9.67;8.67;;;;;;;;;;5033283;28;20465;-80
2023/09/27 04:19:33;;;;;;;10.80;9.80;;;;;;;;;;5034432;28;20452;-80
2023/09/27 04:21:59;;;;;;;10.47;9.10;;;;;;;;;;5033755;28;20468;-80
2023/09/27 04:24:26;;;;;;;9.77;8.37;;;;;;;;;;5034632;28;20467;-79
2023/09/27 04:26:53;;;;;;;10.57;9.63;;;;;;;;;;5055209;28;20476;-79
2023/09/27 04:29:20;;;;;;;12.00;9.90;;;;;;;;;;5027777;28;20441;-80
2023/09/27 04:31:49;;;;;;;10.97;9.47;;;;;;;;;;5033850;28;20464;-81
2023/09/27 04:34:17;;;;;;;14.53;11.90;;;;;;;;;;5034702;28;20491;-83
2023/09/27 04:36:44;;;;;;;12.53;9.97;;;;;;;;;;5032299;28;20473;-82
2023/09/27 04:39:14;;;;;;;12.03;10.93;;;;;;;;;;5034039;28;20504;-82
2023/09/27 04:41:40;;;;;;;12.87;11.40;;;;;;;;;;5033777;28;20994;-81
2023/09/27 04:44:07;;;;;;;12.47;10.97;;;;;;;;;;5034694;28;20560;-82
2023/09/27 04:46:34;;;;;;;14.00;11.50;;;;;;;;;;5037358;28;20990;-81
2023/09/27 04:49:02;;;;;;;12.87;11.47;;;;;;;;;;5041336;28;20456;-81
2023/09/27 04:51:30;;;;;;;14.10;11.47;;;;;;;;;;5040120;28;20522;-79
2023/09/27 04:54:00;;;;;;;11.27;10.23;;;;;;;;;;5034035;28;20467;-82
2023/09/27 04:56:27;;;;;;;10.93;9.83;;;;;;;;;;5020378;28;20480;-79
2023/09/27 04:58:53;;;;;;;10.47;9.43;;;;;;;;;;5037919;28;20441;-81
2023/09/27 05:01:20;;;;;;;13.77;10.50;;;;;;;;;;5035316;28;20887;-81
2023/09/27 05:03:46;;;;;;;13.93;12.40;;;;;;;;;;5036118;28;20484;-79
2023/09/27 05:06:14;;;;;;;13.17;11.97;;;;;;;;;;5038465;28;20460;-81
2023/09/27 05:08:40;;;;;;;13.50;11.53;;;;;;;;;;5037782;28;20457;-82
2023/09/27 05:11:07;;;;;;;13.67;11.10;;;;;;;;;;5036299;28;20476;-81
2023/09/27 05:13:34;;;;;;;12.70;11.33;;;;;;;;;;5037843;28;20531;-82
2023/09/27 05:16:01;;;;;;;14.30;11.93;;;;;;;;;;5037357;28;20464;-81
2023/09/27 05:18:27;;;;;;;13.37;12.00;;;;;;;;;;5036929;28;20523;-81
2023/09/27 05:20:54;;;;;;;11.73;10.63;;;;;;;;;;5039348;28;20459;-81
2023/09/27 05:23:21;;;;;;;16.83;12.10;;;;;;;;;;5057273;28;20460;-82
2023/09/27 05:25:48;;;;;;;14.87;12.13;;;;;;;;;;5054848;28;20436;-81
2023/09/27 05:28:14;;;;;;;14.37;11.70;;;;;;;;;;5037060;28;20510;-83
2023/09/27 05:30:42;;;;;;;14.20;12.80;;;;;;;;;;5037284;28;20915;-80
2023/09/27 05:33:08;;;;;;;15.83;13.53;;;;;;;;;;5037079;28;20456;-81
2023/09/27 05:35:35;;;;;;;13.07;11.63;;;;;;;;;;5036810;28;20550;-81
2023/09/27 05:38:01;;;;;;;14.17;12.67;;;;;;;;;;5036413;28;20448;-82
2023/09/27 05:40:31;;;;;;;15.87;13.90;;;;;;;;;;5036028;28;20465;-82
2023/09/27 05:42:57;;;;;;;14.20;12.77;;;;;;;;;;5034652;28;20472;-81
2023/09/27 05:45:23;;;;;;;14.83;12.73;;;;;;;;;;5036299;28;20437;-81
2023/09/27 05:47:50;;;;;;;14.57;13.13;;;;;;;;;;5035701;28;20468;-82
2023/09/27 05:50:17;;;;;;;22.13;13.03;;;;;;;;;;5035535;28;20468;-82
2023/09/27 05:52:46;;;;;;;17.53;13.43;;;;;;;;;;5035213;28;20471;-81
2023/09/27 05:55:13;;;;;;;19.77;14.70;;;;;;;;;;5035390;28;20500;-82
2023/09/27 05:57:40;;;;;;;14.80;13.37;;;;;;;;;;5034601;28;20479;-81
2023/09/27 06:00:15;;;;;;;18.43;14.50;;;;;;;;;;5036102;28;20843;-83
2023/09/27 06:02:41;;;;;;;16.60;14.80;;;;;;;;;;5035542;28;21013;-82
2023/09/27 06:05:08;;;;;;;14.57;13.00;;;;;;;;;;5035811;28;20460;-81
2023/09/27 06:07:35;;;;;;;22.90;14.23;;;;;;;;;;5035951;28;20476;-81
2023/09/27 06:10:02;;;;;;;17.00;14.60;;;;;;;;;;5035976;28;20444;-81
2023/09/27 06:12:28;;;;;;;20.90;15.67;;;;;;;;;;5035596;28;20484;-83
2023/09/27 06:14:57;;;;;;;17.37;13.80;;;;;;;;;;5035956;28;20491;-83
2023/09/27 06:17:24;;;;;;;17.07;14.43;;;;;;;;;;5033966;28;20493;-81
2023/09/27 06:19:50;;;;;;;19.00;15.97;;;;;;;;;;5035595;28;20860;-81
2023/09/27 06:22:17;;;;;;;18.33;14.80;;;;;;;;;;5034804;28;20468;-81
2023/09/27 06:24:43;;;;;;;18.67;15.10;;;;;;;;;;5035355;28;20544;-81
2023/09/27 06:27:11;;;;;;;17.17;15.13;;;;;;;;;;5034877;28;20468;-81
2023/09/27 06:29:38;;;;;;;19.00;15.43;;;;;;;;;;5035350;28;20447;-82
2023/09/27 06:32:07;;;;;;;21.57;16.13;;;;;;;;;;5036931;28;20480;-82
2023/09/27 06:34:35;;;;;;;22.37;17.33;;;;;;;;;;5034861;28;20986;-81
2023/09/27 06:37:01;;;;;;;22.67;20.00;;;;;;;;;;5035515;28;20447;-81
2023/09/27 06:39:30;;;;;;;26.13;19.40;;;;;;;;;;5034021;28;20440;-82
2023/09/27 06:41:58;;;;;;;26.37;20.00;;;;;;;;;;5034915;28;20465;-81
2023/09/27 06:44:24;;;;;;;27.40;20.93;;;;;;;;;;5034367;28;20523;-81
2023/09/27 06:46:52;;;;;;;27.70;23.33;;;;;;;;;;5036444;28;20839;-81
2023/09/27 06:49:20;;;;;;;27.10;21.77;;;;;;;;;;5033414;28;20452;-81
2023/09/27 06:51:46;;;;;;;30.53;24.17;;;;;;;;;;5036975;28;20467;-81
2023/09/27 06:54:13;;;;;;;26.73;23.57;;;;;;;;;;5034925;28;20477;-82
2023/09/27 06:56:40;;;;;;;27.60;23.53;;;;;;;;;;5034415;28;20458;-81
2023/09/27 06:59:07;;;;;;;33.90;27.50;;;;;;;;;;5036621;28;20427;-81
2023/09/27 07:01:34;;;;;;;30.30;23.33;;;;;;;;;;5034115;28;20454;-82
2023/09/27 07:04:00;;;;;;;36.00;29.00;;;;;;;;;;5033056;28;20432;-81
2023/09/27 07:06:28;;;;;;;36.90;30.00;;;;;;;;;;5034078;28;20475;-82
2023/09/27 07:08:57;;;;;;;37.00;28.87;;;;;;;;;;5034854;28;20445;-82
2023/09/27 07:11:24;;;;;;;37.87;31.13;;;;;;;;;;5034822;28;20473;-80
2023/09/27 07:13:50;;;;;;;36.27;30.33;;;;;;;;;;5037435;28;20452;-81
2023/09/27 07:16:21;;;;;;;43.93;29.50;;;;;;;;;;5029524;28;20473;-82
2023/09/27 07:18:48;;;;;;;38.23;30.83;;;;;;;;;;5026764;28;20444;-80
2023/09/27 07:21:15;;;;;;;41.40;32.83;;;;;;;;;;5040987;28;20836;-83
2023/09/27 07:23:43;;;;;;;45.57;33.53;;;;;;;;;;5034342;28;20805;-81
2023/09/27 07:26:09;;;;;;;41.30;32.67;;;;;;;;;;5034305;28;20468;-81
2023/09/27 07:28:36;;;;;;;56.30;37.60;;;;;;;;;;5033102;28;20869;-80
2023/09/27 07:31:04;;;;;;;48.27;37.47;;;;;;;;;;5034218;28;20489;-81
2023/09/27 07:33:31;;;;;;;45.97;35.77;;;;;;;;;;5033421;28;20473;-81
2023/09/27 07:35:58;;;;;;;46.97;34.50;;;;;;;;;;5033638;28;20556;-80
2023/09/27 07:38:25;;;;;;;41.20;34.10;;;;;;;;;;5034145;28;20806;-81
2023/09/27 07:40:52;;;;;;;44.90;35.57;;;;;;;;;;5033704;28;20821;-80
2023/09/27 07:43:19;;;;;;;44.17;35.80;;;;;;;;;;5033805;28;20441;-81
2023/09/27 07:45:47;;;;;;;44.77;37.70;;;;;;;;;;5033105;28;20439;-80
2023/09/27 07:48:14;;;;;;;40.43;33.47;;;;;;;;;;5032425;28;20424;-80
2023/09/27 07:50:41;;;;;;;46.03;35.60;;;;;;;;;;5034002;28;20452;-81
2023/09/27 07:53:08;;;;;;;36.13;31.17;;;;;;;;;;5033823;28;20444;-80
2023/09/27 07:55:43;;;;;;;40.83;31.47;;;;;;;;;;5034042;28;20477;-80
2023/09/27 07:58:12;;;;;;;33.40;28.77;;;;;;;;;;5033929;28;20790;-80
2023/09/27 08:00:40;;;;;;;37.70;30.80;;;;;;;;;;5033538;28;20454;-80
2023/09/27 08:03:07;;;;;;;36.67;29.30;;;;;;;;;;5032058;28;21009;-80
2023/09/27 08:05:42;;;;;;;30.80;27.50;;;;;;;;;;5031853;28;20477;-80
2023/09/27 08:08:09;;;;;;;29.40;25.97;;;;;;;;;;5032364;28;20444;-80
2023/09/27 08:10:35;;;;;;;32.63;26.17;;;;;;;;;;5033002;28;20431;-80
2023/09/27 08:13:02;;;;;;;29.57;26.57;;;;;;;;;;5032179;28;20431;-80
2023/09/27 08:15:29;;;;;;;36.47;27.67;;;;;;;;;;5033386;28;20452;-80
2023/09/27 08:17:57;;;;;;;32.13;28.23;;;;;;;;;;5032821;28;20492;-80
2023/09/27 08:20:23;;;;;;;35.23;27.27;;;;;;;;;;5036433;28;20460;-79
2023/09/27 08:22:49;;;;;;;40.23;27.67;;;;;;;;;;5036769;28;20821;-80
2023/09/27 08:25:16;;;;;;;30.53;26.30;;;;;;;;;;5037656;28;20551;-79
2023/09/27 08:27:43;;;;;;;31.07;26.20;;;;;;;;;;5036109;28;20472;-82
2023/09/27 08:30:11;;;;;;;31.33;26.93;;;;;;;;;;5037825;28;20439;-80
2023/09/27 08:32:40;;;;;;;29.37;25.60;;;;;;;;;;5036712;28;21000;-79
2023/09/27 08:35:07;;;;;;;29.60;26.50;;;;;;;;;;5036892;28;20992;-80
2023/09/27 08:37:33;;;;;;;33.07;26.43;;;;;;;;;;5035369;28;20468;-80
2023/09/27 08:40:00;;;;;;;27.37;24.57;;;;;;;;;;5037078;28;20982;-81
2023/09/27 08:42:26;;;;;;;27.87;24.97;;;;;;;;;;5037381;28;20464;-79
2023/09/27 08:44:53;;;;;;;28.83;25.27;;;;;;;;;;5037472;28;20471;-79
2023/09/27 08:47:20;;;;;;;30.30;26.20;;;;;;;;;;5036735;28;20470;-80
2023/09/27 08:49:49;;;;;;;29.33;26.23;;;;;;;;;;5037354;28;20448;-80
2023/09/27 08:52:16;;;;;;;29.80;25.93;;;;;;;;;;5036800;28;20472;-80
2023/09/27 08:54:43;;;;;;;28.83;25.20;;;;;;;;;;5036418;28;20955;-80
2023/09/27 08:57:10;;;;;;;27.73;24.87;;;;;;;;;;5036301;28;20481;-80
2023/09/27 08:59:39;;;;;;;32.90;24.97;;;;;;;;;;5037094;28;20531;-80
2023/09/27 09:02:06;;;;;;;39.17;25.20;;;;;;;;;;5036279;28;20526;-80
2023/09/27 09:04:33;;;;;;;38.40;27.50;;;;;;;;;;5037254;28;20816;-80
2023/09/27 09:07:03;;;;;;;28.23;25.20;;;;;;;;;;5036473;28;20495;-80
2023/09/27 09:09:30;;;;;;;26.97;23.63;;;;;;;;;;5035779;28;20468;-80
2023/09/27 09:11:58;;;;;;;25.33;22.63;;;;;;;;;;5047637;28;21009;-80
2023/09/27 09:14:37;;;;;;;25.47;22.93;;;;;;;;;;5056724;28;20514;-80
2023/09/27 09:17:07;;;;;;;33.70;25.83;;;;;;;;;;5056244;28;20478;-80
2023/09/27 09:19:37;;;;;;;27.83;24.83;;;;;;;;;;5056645;28;20518;-79
2023/09/27 09:22:09;;;;;;;31.60;22.20;;;;;;;;;;5056415;28;20476;-81
2023/09/27 09:24:36;;;;;;;27.00;22.20;;;;;;;;;;5066724;28;20880;-80
2023/09/27 09:27:07;;;;;;;28.33;23.17;;;;;;;;;;5074848;28;21059;-79
2023/09/27 09:29:52;;;;;;;25.43;21.87;;;;;;;;;;5076423;28;20496;-80
2023/09/27 09:32:20;;;;;;;25.30;22.63;;;;;;;;;;5074946;28;20467;-79
2023/09/27 09:34:48;;;;;;;29.00;21.47;;;;;;;;;;5076162;28;20466;-81
2023/09/27 09:37:23;;;;;;;26.00;22.07;;;;;;;;;;5062899;28;20992;-79
2023/09/27 09:39:50;;;;;;;26.13;23.17;;;;;;;;;;5056046;28;20549;-81
2023/09/27 09:42:29;;;;;;;25.93;23.23;;;;;;;;;;5055819;28;20833;-79
2023/09/27 09:44:59;;;;;;;24.47;21.90;;;;;;;;;;5056320;28;20456;-80
2023/09/27 09:47:25;;;;;;;31.80;23.23;;;;;;;;;;5055542;28;20464;-80
2023/09/27 09:49:52;;;;;;;24.50;21.77;;;;;;;;;;5055748;28;20460;-79
2023/09/27 09:52:19;;;;;;;25.60;22.40;;;;;;;;;;5040633;28;20480;-80
2023/09/27 09:54:49;;;;;;;25.80;21.80;;;;;;;;;;5035767;28;20452;-81
2023/09/27 09:57:18;;;;;;;24.27;21.77;;;;;;;;;;5035524;28;20563;-79
2023/09/27 09:59:48;;;;;;;24.57;21.97;;;;;;;;;;5036325;28;20443;-80
2023/09/27 10:02:18;;;;;;;26.00;20.17;;;;;;;;;;5035193;28;20502;-81
2023/09/27 10:04:45;;;;;;;23.40;20.93;;;;;;;;;;5036147;28;20970;-80
2023/09/27 10:07:13;;;;;;;24.57;20.33;;;;;;;;;;5035380;28;20481;-80
2023/09/27 10:09:40;;;;;;;20.87;18.67;;;;;;;;;;5034501;28;20809;-80
2023/09/27 10:12:08;;;;;;;23.40;19.47;;;;;;;;;;5035084;28;20473;-80
2023/09/27 10:14:35;;;;;;;19.80;17.77;;;;;;;;;;5035823;28;20461;-79
2023/09/27 10:17:02;;;;;;;18.73;16.67;;;;;;;;;;5035050;28;20481;-80
2023/09/27 10:19:29;;;;;;;18.20;13.73;;;;;;;;;;5035657;28;20436;-79
2023/09/27 10:22:07;;;;;;;18.57;16.67;;;;;;;;;;5034934;28;21009;-79
2023/09/27 10:24:35;;;;;;;16.20;14.60;;;;;;;;;;5035207;28;20514;-79
2023/09/27 10:27:01;;;;;;;17.30;15.60;;;;;;;;;;5042957;28;20475;-80
2023/09/27 10:29:29;;;;;;;19.57;15.93;;;;;;;;;;5035028;28;20810;-80
2023/09/27 10:32:19;;;;;;;16.90;15.20;;;;;;;;;;5034730;28;20469;-79
2023/09/27 10:34:46;;;;;;;19.47;15.93;;;;;;;;;;5035455;28;20453;-80
2023/09/27 10:37:13;;;;;;;13.13;11.70;;;;;;;;;;5033544;28;21002;-81
2023/09/27 10:39:40;;;;;;;17.27;12.90;;;;;;;;;;5015738;28;20477;-79
2023/09/27 10:42:08;;;;;;;13.13;11.93;;;;;;;;;;5023277;28;20473;-80
2023/09/27 10:44:40;;;;;;;19.07;12.20;;;;;;;;;;5034258;28;20534;-79
2023/09/27 10:47:07;;;;;;;18.97;12.63;;;;;;;;;;5035185;28;20492;-81
2023/09/27 10:49:38;;;;;;;15.00;13.47;;;;;;;;;;5035005;28;20460;-80
2023/09/27 10:52:04;;;;;;;13.93;12.43;;;;;;;;;;5044727;28;20482;-79
2023/09/27 10:54:31;;;;;;;15.50;11.83;;;;;;;;;;5054855;28;20456;-80
2023/09/27 10:56:57;;;;;;;12.30;11.10;;;;;;;;;;5042733;28;20508;-80
2023/09/27 10:59:24;;;;;;;12.37;10.70;;;;;;;;;;5034563;28;20476;-80
2023/09/27 11:01:52;;;;;;;14.77;11.93;;;;;;;;;;5033068;28;20538;-82
2023/09/27 11:04:21;;;;;;;11.40;10.30;;;;;;;;;;5034257;28;20461;-80
2023/09/27 11:06:47;;;;;;;14.90;13.10;;;;;;;;;;5033960;28;20862;-80
2023/09/27 11:09:19;;;;;;;14.37;11.27;;;;;;;;;;5033484;28;20436;-80
2023/09/27 11:11:45;;;;;;;12.70;11.50;;;;;;;;;;5034401;28;20469;-79
2023/09/27 11:14:12;;;;;;;12.90;11.43;;;;;;;;;;5033739;28;20601;-80
2023/09/27 11:16:39;;;;;;;15.33;11.40;;;;;;;;;;5034218;28;20476;-80
2023/09/27 11:19:07;;;;;;;10.77;9.40;;;;;;;;;;5034716;28;20437;-82
2023/09/27 11:21:33;;;;;;;11.80;10.20;;;;;;;;;;5033499;28;20488;-82
2023/09/27 11:24:02;;;;;;;10.67;9.67;;;;;;;;;;5035710;28;20452;-81
2023/09/27 11:26:29;;;;;;;10.70;9.70;;;;;;;;;;5035914;28;20476;-78
2023/09/27 11:28:57;;;;;;;13.07;9.60;;;;;;;;;;5035295;28;20443;-81
2023/09/27 11:31:25;;;;;;;13.30;9.67;;;;;;;;;;5035626;28;20468;-79
2023/09/27 11:33:52;;;;;;;12.13;11.00;;;;;;;;;;5036764;28;20527;-79
2023/09/27 11:36:19;;;;;;;16.00;12.40;;;;;;;;;;5036813;28;20983;-80
2023/09/27 11:38:49;;;;;;;13.83;12.07;;;;;;;;;;5037521;28;20448;-81
2023/09/27 11:41:16;;;;;;;12.40;11.17;;;;;;;;;;5037195;28;20465;-80
2023/09/27 11:43:43;;;;;;;15.47;11.80;;;;;;;;;;5028754;28;20553;-81
2023/09/27 11:46:10;;;;;;;16.37;13.67;;;;;;;;;;5048280;28;20959;-81
2023/09/27 11:48:37;;;;;;;15.40;11.73;;;;;;;;;;5015365;28;20515;-81
2023/09/27 11:51:04;;;;;;;12.17;10.97;;;;;;;;;;5015971;28;20818;-81
2023/09/27 11:53:32;;;;;;;13.13;11.10;;;;;;;;;;5016243;28;20564;-80
2023/09/27 11:55:59;;;;;;;13.87;12.57;;;;;;;;;;5014169;28;20470;-82
2023/09/27 11:58:26;;;;;;;12.20;10.70;;;;;;;;;;5014911;28;20537;-79
2023/09/27 12:00:52;;;;;;;14.50;12.60;;;;;;;;;;5015232;28;20474;-80
2023/09/27 12:03:19;;;;;;;12.60;11.40;;;;;;;;;;5015479;28;20540;-79
2023/09/27 12:05:45;;;;;;;10.67;9.60;;;;;;;;;;5014946;28;20445;-79
2023/09/27 12:08:12;;;;;;;13.37;11.33;;;;;;;;;;5034188;28;20453;-82
2023/09/27 12:10:40;;;;;;;12.33;11.00;;;;;;;;;;5050425;28;20462;-79
2023/09/27 12:13:07;;;;;;;11.07;9.97;;;;;;;;;;5054361;28;20467;-80
2023/09/27 12:15:33;;;;;;;11.70;10.47;;;;;;;;;;5053453;28;20451;-80
2023/09/27 12:17:59;;;;;;;10.10;9.20;;;;;;;;;;5051511;28;20466;-80
2023/09/27 12:20:30;;;;;;;12.37;11.07;;;;;;;;;;5035279;28;20449;-79
2023/09/27 12:22:56;;;;;;;12.77;9.23;;;;;;;;;;5033933;28;20885;-80
2023/09/27 12:25:22;;;;;;;11.00;8.20;;;;;;;;;;5034217;28;20456;-80
2023/09/27 12:27:50;;;;;;;9.67;8.30;;;;;;;;;;5034010;28;20448;-78
2023/09/27 12:30:16;;;;;;;8.73;7.87;;;;;;;;;;5034756;28;20451;-81
2023/09/27 12:32:43;;;;;;;8.67;7.77;;;;;;;;;;5034613;28;20445;-81
2023/09/27 12:35:09;;;;;;;11.30;8.13;;;;;;;;;;5034262;28;20880;-79
2023/09/27 12:37:36;;;;;;;12.73;8.80;;;;;;;;;;5035129;28;20484;-79
2023/09/27 12:40:02;;;;;;;10.97;7.80;;;;;;;;;;5035842;28;20969;-80
2023/09/27 12:42:29;;;;;;;12.40;8.57;;;;;;;;;;5033318;28;20461;-81
2023/09/27 12:44:57;;;;;;;9.33;8.47;;;;;;;;;;5033466;28;20539;-79
2023/09/27 12:47:23;;;;;;;10.87;8.00;;;;;;;;;;5033979;28;20543;-80
2023/09/27 12:49:50;;;;;;;11.47;8.50;;;;;;;;;;5032867;28;20472;-79
2023/09/27 12:52:16;;;;;;;15.73;9.10;;;;;;;;;;5036243;28;20457;-81
2023/09/27 12:54:44;;;;;;;13.37;9.27;;;;;;;;;;5034188;28;20500;-79
2023/09/27 12:57:10;;;;;;;9.30;8.27;;;;;;;;;;5034881;28;20515;-79
2023/09/27 12:59:37;;;;;;;11.23;7.90;;;;;;;;;;5033907;28;20468;-80
2023/09/27 13:02:06;;;;;;;15.67;7.90;;;;;;;;;;5034556;28;20444;-81
2023/09/27 13:04:33;;;;;;;12.20;7.53;;;;;;;;;;5033756;28;20476;-79
2023/09/27 13:06:59;;;;;;;10.37;8.00;;;;;;;;;;5038332;28;20436;-80
2023/09/27 13:09:26;;;;;;;9.40;8.30;;;;;;;;;;5039821;28;20468;-81
2023/09/27 13:11:53;;;;;;;9.67;7.97;;;;;;;;;;5037913;28;20451;-79
2023/09/27 13:14:19;;;;;;;10.70;7.90;;;;;;;;;;5037478;28;20474;-79
2023/09/27 13:16:53;;;;;;;12.50;9.47;;;;;;;;;;5038475;28;20572;-80
2023/09/27 13:19:21;;;;;;;8.80;7.90;;;;;;;;;;5036196;28;20472;-79
2023/09/27 13:21:47;;;;;;;8.30;7.20;;;;;;;;;;5038031;28;20931;-79
2023/09/27 13:24:13;;;;;;;10.97;6.73;;;;;;;;;;5036957;28;21021;-79
2023/09/27 13:26:40;;;;;;;8.50;7.23;;;;;;;;;;5037516;28;20809;-79
2023/09/27 13:29:06;;;;;;;7.93;7.13;;;;;;;;;;5037588;28;20487;-81
2023/09/27 13:31:33;;;;;;;8.13;6.67;;;;;;;;;;5037498;28;20437;-80
2023/09/27 13:33:59;;;;;;;8.70;7.90;;;;;;;;;;5036805;28;20998;-79
2023/09/27 13:36:27;;;;;;;9.23;6.67;;;;;;;;;;5037742;28;20449;-80
2023/09/27 13:38:54;;;;;;;6.53;5.90;;;;;;;;;;5037067;28;20811;-81
2023/09/27 13:41:20;;;;;;;7.47;6.30;;;;;;;;;;5037906;28;20452;-79
2023/09/27 13:43:47;;;;;;;11.30;6.57;;;;;;;;;;5037064;28;20479;-79
2023/09/27 13:46:13;;;;;;;9.10;7.13;;;;;;;;;;5037364;28;20480;-80
2023/09/27 13:48:40;;;;;;;6.03;5.40;;;;;;;;;;5036974;28;20475;-81
2023/09/27 13:51:06;;;;;;;9.80;6.00;;;;;;;;;;5036805;28;20456;-79
2023/09/27 13:53:34;;;;;;;11.30;6.27;;;;;;;;;;5037242;28;20476;-79
2023/09/27 13:56:01;;;;;;;9.93;7.40;;;;;;;;;;5037341;28;20461;-79
2023/09/27 13:58:28;;;;;;;7.57;6.83;;;;;;;;;;5037161;28;20472;-79
2023/09/27 14:00:55;;;;;;;7.80;6.60;;;;;;;;;;5036502;28;20456;-79
2023/09/27 14:03:21;;;;;;;11.60;6.33;;;;;;;;;;5036974;28;20485;-80
2023/09/27 14:05:48;;;;;;;6.70;5.77;;;;;;;;;;5036879;28;20969;-80
2023/09/27 14:08:14;;;;;;;7.43;6.00;;;;;;;;;;5036401;28;20472;-79
2023/09/27 14:10:42;;;;;;;6.60;5.83;;;;;;;;;;5036843;28;20425;-80
2023/09/27 14:13:11;;;;;;;7.17;6.43;;;;;;;;;;5038225;28;20470;-79
2023/09/27 14:15:37;;;;;;;7.90;6.23;;;;;;;;;;5036501;28;20449;-79
2023/09/27 14:18:04;;;;;;;7.93;5.60;;;;;;;;;;5038308;28;20460;-78
2023/09/27 14:20:31;;;;;;;8.60;7.10;;;;;;;;;;5038949;28;20504;-78
2023/09/27 14:22:58;;;;;;;11.50;7.00;;;;;;;;;;5036482;28;20441;-80
2023/09/27 14:25:26;;;;;;;9.20;7.40;;;;;;;;;;5037101;28;20437;-79
2023/09/27 14:27:54;;;;;;;7.87;7.17;;;;;;;;;;5036228;28;21172;-79